sensor_id;sensor_type;location;lat;lon;timestamp;P1;durP1;ratioP1;P2;durP2;ratioP2
8716;SDS011;4395;48.554;8.820;2023-02-15T00:00:23;26.15;;;14.80;;
8716;SDS011;4395;48.554;8.820;2023-02-15T00:02:26;24.60;;;14.25;;
8716;SDS011;4395;48.554;8.820;2023-02-15T00:04:29;26.80;;;14.82;;
8716;SDS011;4395;48.554;8.820;2023-02-15T00:06:45;27.33;;;17.05;;
8716;SDS011;4395;48.554;8.820;2023-02-15T00:08:48;20.20;;;14.30;;
8716;SDS011;4395;48.554;8.820;2023-02-15T00:10:53;20.40;;;13.52;;
8716;SDS011;4395;48.554;8.820;2023-02-15T00:12:55;19.85;;;13.40;;
8716;SDS011;4395;48.554;8.820;2023-02-15T00:14:58;22.30;;;14.20;;
8716;SDS011;4395;48.554;8.820;2023-02-15T00:17:01;18.38;;;13.50;;
8716;SDS011;4395;48.554;8.820;2023-02-15T00:19:04;18.35;;;12.95;;
8716;SDS011;4395;48.554;8.820;2023-02-15T00:21:08;18.52;;;13.13;;
8716;SDS011;4395;48.554;8.820;2023-02-15T00:23:11;16.98;;;12.88;;
8716;SDS011;4395;48.554;8.820;2023-02-15T00:25:14;19.83;;;13.38;;
8716;SDS011;4395;48.554;8.820;2023-02-15T00:27:18;19.95;;;14.73;;
8716;SDS011;4395;48.554;8.820;2023-02-15T00:29:21;20.00;;;14.00;;
8716;SDS011;4395;48.554;8.820;2023-02-15T00:31:24;20.55;;;13.45;;
8716;SDS011;4395;48.554;8.820;2023-02-15T00:33:27;18.80;;;13.93;;
8716;SDS011;4395;48.554;8.820;2023-02-15T00:35:30;22.42;;;14.98;;
8716;SDS011;4395;48.554;8.820;2023-02-15T00:37:33;24.30;;;15.23;;
8716;SDS011;4395;48.554;8.820;2023-02-15T00:39:36;25.95;;;16.42;;
8716;SDS011;4395;48.554;8.820;2023-02-15T00:41:39;26.33;;;16.27;;
8716;SDS011;4395;48.554;8.820;2023-02-15T00:43:44;25.85;;;15.68;;
8716;SDS011;4395;48.554;8.820;2023-02-15T00:45:46;25.13;;;16.00;;
8716;SDS011;4395;48.554;8.820;2023-02-15T00:47:49;26.15;;;15.93;;
8716;SDS011;4395;48.554;8.820;2023-02-15T00:49:52;21.17;;;14.80;;
8716;SDS011;4395;48.554;8.820;2023-02-15T00:51:55;22.65;;;13.75;;
8716;SDS011;4395;48.554;8.820;2023-02-15T00:53:57;21.17;;;14.75;;
8716;SDS011;4395;48.554;8.820;2023-02-15T00:56:00;21.25;;;15.20;;
8716;SDS011;4395;48.554;8.820;2023-02-15T00:58:04;21.65;;;13.70;;
8716;SDS011;4395;48.554;8.820;2023-02-15T01:00:08;18.50;;;13.57;;
8716;SDS011;4395;48.554;8.820;2023-02-15T01:02:12;17.65;;;13.20;;
8716;SDS011;4395;48.554;8.820;2023-02-15T01:04:15;18.58;;;13.55;;
8716;SDS011;4395;48.554;8.820;2023-02-15T01:06:18;17.63;;;12.90;;
8716;SDS011;4395;48.554;8.820;2023-02-15T01:08:21;21.45;;;14.05;;
8716;SDS011;4395;48.554;8.820;2023-02-15T01:10:24;19.35;;;13.70;;
8716;SDS011;4395;48.554;8.820;2023-02-15T01:12:29;22.25;;;14.45;;
8716;SDS011;4395;48.554;8.820;2023-02-15T01:14:32;21.45;;;13.85;;
8716;SDS011;4395;48.554;8.820;2023-02-15T01:16:36;22.02;;;14.27;;
8716;SDS011;4395;48.554;8.820;2023-02-15T01:18:39;18.70;;;13.18;;
8716;SDS011;4395;48.554;8.820;2023-02-15T01:20:42;21.38;;;13.13;;
8716;SDS011;4395;48.554;8.820;2023-02-15T01:22:45;20.15;;;13.65;;
8716;SDS011;4395;48.554;8.820;2023-02-15T01:24:48;19.08;;;13.38;;
8716;SDS011;4395;48.554;8.820;2023-02-15T01:26:51;18.20;;;13.00;;
8716;SDS011;4395;48.554;8.820;2023-02-15T01:28:54;17.52;;;13.07;;
8716;SDS011;4395;48.554;8.820;2023-02-15T01:30:57;22.10;;;13.20;;
8716;SDS011;4395;48.554;8.820;2023-02-15T01:33:02;19.50;;;13.15;;
8716;SDS011;4395;48.554;8.820;2023-02-15T01:35:05;18.20;;;12.73;;
8716;SDS011;4395;48.554;8.820;2023-02-15T01:37:08;18.40;;;13.43;;
8716;SDS011;4395;48.554;8.820;2023-02-15T01:39:11;19.02;;;13.23;;
8716;SDS011;4395;48.554;8.820;2023-02-15T01:41:13;19.20;;;13.27;;
8716;SDS011;4395;48.554;8.820;2023-02-15T01:43:38;15.40;;;11.80;;
8716;SDS011;4395;48.554;8.820;2023-02-15T01:45:42;14.52;;;11.95;;
8716;SDS011;4395;48.554;8.820;2023-02-15T01:47:48;17.52;;;12.35;;
8716;SDS011;4395;48.554;8.820;2023-02-15T01:49:58;16.15;;;12.05;;
8716;SDS011;4395;48.554;8.820;2023-02-15T01:52:05;19.42;;;13.20;;
8716;SDS011;4395;48.554;8.820;2023-02-15T01:54:09;17.73;;;12.35;;
8716;SDS011;4395;48.554;8.820;2023-02-15T01:56:20;16.73;;;13.63;;
8716;SDS011;4395;48.554;8.820;2023-02-15T01:58:27;19.25;;;13.45;;
8716;SDS011;4395;48.554;8.820;2023-02-15T02:00:31;17.45;;;13.10;;
8716;SDS011;4395;48.554;8.820;2023-02-15T02:02:35;22.23;;;13.35;;
8716;SDS011;4395;48.554;8.820;2023-02-15T02:04:39;19.98;;;13.23;;
8716;SDS011;4395;48.554;8.820;2023-02-15T02:06:49;21.33;;;13.90;;
8716;SDS011;4395;48.554;8.820;2023-02-15T02:08:53;20.35;;;12.57;;
8716;SDS011;4395;48.554;8.820;2023-02-15T02:10:57;20.30;;;13.32;;
8716;SDS011;4395;48.554;8.820;2023-02-15T02:13:01;19.63;;;12.88;;
8716;SDS011;4395;48.554;8.820;2023-02-15T02:15:07;21.60;;;14.30;;
8716;SDS011;4395;48.554;8.820;2023-02-15T02:17:12;20.45;;;14.05;;
8716;SDS011;4395;48.554;8.820;2023-02-15T02:19:31;18.75;;;14.13;;
8716;SDS011;4395;48.554;8.820;2023-02-15T02:22:08;22.38;;;15.27;;
8716;SDS011;4395;48.554;8.820;2023-02-15T02:24:49;24.85;;;17.95;;
8716;SDS011;4395;48.554;8.820;2023-02-15T02:27:15;22.67;;;14.60;;
8716;SDS011;4395;48.554;8.820;2023-02-15T02:29:28;21.20;;;15.18;;
8716;SDS011;4395;48.554;8.820;2023-02-15T02:32:04;18.38;;;14.15;;
8716;SDS011;4395;48.554;8.820;2023-02-15T02:34:29;17.58;;;13.38;;
8716;SDS011;4395;48.554;8.820;2023-02-15T02:36:38;25.77;;;14.30;;
8716;SDS011;4395;48.554;8.820;2023-02-15T02:38:50;18.65;;;13.95;;
8716;SDS011;4395;48.554;8.820;2023-02-15T02:41:06;17.17;;;13.63;;
8716;SDS011;4395;48.554;8.820;2023-02-15T02:43:18;19.80;;;13.98;;
8716;SDS011;4395;48.554;8.820;2023-02-15T02:45:24;23.38;;;13.77;;
8716;SDS011;4395;48.554;8.820;2023-02-15T02:47:32;19.27;;;14.05;;
8716;SDS011;4395;48.554;8.820;2023-02-15T02:49:41;19.45;;;14.13;;
8716;SDS011;4395;48.554;8.820;2023-02-15T02:51:45;22.58;;;14.90;;
8716;SDS011;4395;48.554;8.820;2023-02-15T02:53:49;19.67;;;14.88;;
8716;SDS011;4395;48.554;8.820;2023-02-15T02:55:55;22.50;;;14.85;;
8716;SDS011;4395;48.554;8.820;2023-02-15T02:58:03;23.75;;;15.45;;
8716;SDS011;4395;48.554;8.820;2023-02-15T03:00:09;20.15;;;15.07;;
8716;SDS011;4395;48.554;8.820;2023-02-15T03:02:15;20.33;;;14.75;;
8716;SDS011;4395;48.554;8.820;2023-02-15T03:04:22;20.00;;;14.02;;
8716;SDS011;4395;48.554;8.820;2023-02-15T03:06:32;25.40;;;15.07;;
8716;SDS011;4395;48.554;8.820;2023-02-15T03:08:40;18.35;;;14.40;;
8716;SDS011;4395;48.554;8.820;2023-02-15T03:10:45;20.17;;;14.57;;
8716;SDS011;4395;48.554;8.820;2023-02-15T03:12:48;23.85;;;16.15;;
8716;SDS011;4395;48.554;8.820;2023-02-15T03:14:53;19.23;;;14.40;;
8716;SDS011;4395;48.554;8.820;2023-02-15T03:16:58;20.70;;;14.73;;
8716;SDS011;4395;48.554;8.820;2023-02-15T03:19:03;19.70;;;14.23;;
8716;SDS011;4395;48.554;8.820;2023-02-15T03:21:10;22.58;;;15.80;;
8716;SDS011;4395;48.554;8.820;2023-02-15T03:23:24;20.90;;;15.45;;
8716;SDS011;4395;48.554;8.820;2023-02-15T03:25:33;23.13;;;15.65;;
8716;SDS011;4395;48.554;8.820;2023-02-15T03:27:40;21.83;;;14.43;;
8716;SDS011;4395;48.554;8.820;2023-02-15T03:29:44;22.70;;;14.70;;
8716;SDS011;4395;48.554;8.820;2023-02-15T03:31:51;19.60;;;13.05;;
8716;SDS011;4395;48.554;8.820;2023-02-15T03:34:00;18.58;;;13.50;;
8716;SDS011;4395;48.554;8.820;2023-02-15T03:36:07;17.20;;;12.82;;
8716;SDS011;4395;48.554;8.820;2023-02-15T03:38:20;20.50;;;14.10;;
8716;SDS011;4395;48.554;8.820;2023-02-15T03:40:30;21.08;;;14.95;;
8716;SDS011;4395;48.554;8.820;2023-02-15T03:42:56;18.83;;;13.48;;
8716;SDS011;4395;48.554;8.820;2023-02-15T03:45:03;21.27;;;13.80;;
8716;SDS011;4395;48.554;8.820;2023-02-15T03:47:11;19.85;;;14.45;;
8716;SDS011;4395;48.554;8.820;2023-02-15T03:49:19;15.93;;;12.23;;
8716;SDS011;4395;48.554;8.820;2023-02-15T03:51:25;18.58;;;13.43;;
8716;SDS011;4395;48.554;8.820;2023-02-15T03:53:38;19.10;;;13.50;;
8716;SDS011;4395;48.554;8.820;2023-02-15T03:55:45;19.55;;;13.25;;
8716;SDS011;4395;48.554;8.820;2023-02-15T03:57:48;18.92;;;14.00;;
8716;SDS011;4395;48.554;8.820;2023-02-15T04:00:11;22.65;;;15.27;;
8716;SDS011;4395;48.554;8.820;2023-02-15T04:02:35;17.08;;;12.93;;
8716;SDS011;4395;48.554;8.820;2023-02-15T04:04:43;20.90;;;14.48;;
8716;SDS011;4395;48.554;8.820;2023-02-15T04:06:47;21.13;;;14.95;;
8716;SDS011;4395;48.554;8.820;2023-02-15T04:08:52;22.35;;;16.42;;
8716;SDS011;4395;48.554;8.820;2023-02-15T04:11:12;26.20;;;16.13;;
8716;SDS011;4395;48.554;8.820;2023-02-15T04:13:15;21.77;;;16.38;;
8716;SDS011;4395;48.554;8.820;2023-02-15T04:15:18;21.63;;;15.75;;
8716;SDS011;4395;48.554;8.820;2023-02-15T04:17:38;18.88;;;14.02;;
8716;SDS011;4395;48.554;8.820;2023-02-15T04:19:41;19.13;;;14.43;;
8716;SDS011;4395;48.554;8.820;2023-02-15T04:22:01;19.88;;;14.73;;
8716;SDS011;4395;48.554;8.820;2023-02-15T04:24:23;23.27;;;15.13;;
8716;SDS011;4395;48.554;8.820;2023-02-15T04:26:43;25.25;;;15.45;;
8716;SDS011;4395;48.554;8.820;2023-02-15T04:28:46;22.98;;;16.35;;
8716;SDS011;4395;48.554;8.820;2023-02-15T04:30:48;23.60;;;16.90;;
8716;SDS011;4395;48.554;8.820;2023-02-15T04:32:52;23.67;;;16.02;;
8716;SDS011;4395;48.554;8.820;2023-02-15T04:34:56;21.58;;;15.60;;
8716;SDS011;4395;48.554;8.820;2023-02-15T04:36:59;21.42;;;15.68;;
8716;SDS011;4395;48.554;8.820;2023-02-15T04:39:01;23.40;;;16.08;;
8716;SDS011;4395;48.554;8.820;2023-02-15T04:41:05;20.27;;;16.23;;
8716;SDS011;4395;48.554;8.820;2023-02-15T04:43:09;24.52;;;16.58;;
8716;SDS011;4395;48.554;8.820;2023-02-15T04:45:11;20.48;;;15.50;;
8716;SDS011;4395;48.554;8.820;2023-02-15T04:47:14;23.20;;;15.40;;
8716;SDS011;4395;48.554;8.820;2023-02-15T04:49:17;23.35;;;15.73;;
8716;SDS011;4395;48.554;8.820;2023-02-15T04:51:19;26.67;;;17.27;;
8716;SDS011;4395;48.554;8.820;2023-02-15T04:53:22;26.90;;;17.00;;
8716;SDS011;4395;48.554;8.820;2023-02-15T04:55:25;28.35;;;17.33;;
8716;SDS011;4395;48.554;8.820;2023-02-15T04:57:29;26.30;;;18.08;;
8716;SDS011;4395;48.554;8.820;2023-02-15T04:59:32;26.80;;;16.42;;
8716;SDS011;4395;48.554;8.820;2023-02-15T05:01:34;23.52;;;16.73;;
8716;SDS011;4395;48.554;8.820;2023-02-15T05:03:37;24.70;;;15.75;;
8716;SDS011;4395;48.554;8.820;2023-02-15T05:05:40;26.27;;;16.67;;
8716;SDS011;4395;48.554;8.820;2023-02-15T05:07:43;26.95;;;16.38;;
8716;SDS011;4395;48.554;8.820;2023-02-15T05:09:45;21.23;;;14.73;;
8716;SDS011;4395;48.554;8.820;2023-02-15T05:11:48;20.55;;;14.70;;
8716;SDS011;4395;48.554;8.820;2023-02-15T05:13:52;25.85;;;16.33;;
8716;SDS011;4395;48.554;8.820;2023-02-15T05:15:55;21.25;;;13.77;;
8716;SDS011;4395;48.554;8.820;2023-02-15T05:17:58;18.42;;;12.48;;
8716;SDS011;4395;48.554;8.820;2023-02-15T05:20:02;17.05;;;9.70;;
8716;SDS011;4395;48.554;8.820;2023-02-15T05:22:06;11.95;;;9.07;;
8716;SDS011;4395;48.554;8.820;2023-02-15T05:24:08;13.45;;;9.38;;
8716;SDS011;4395;48.554;8.820;2023-02-15T05:26:25;17.10;;;9.82;;
8716;SDS011;4395;48.554;8.820;2023-02-15T05:28:45;16.83;;;10.35;;
8716;SDS011;4395;48.554;8.820;2023-02-15T05:30:49;16.85;;;11.77;;
8716;SDS011;4395;48.554;8.820;2023-02-15T05:33:01;16.58;;;11.15;;
8716;SDS011;4395;48.554;8.820;2023-02-15T05:35:04;17.38;;;12.30;;
8716;SDS011;4395;48.554;8.820;2023-02-15T05:37:07;14.57;;;9.77;;
8716;SDS011;4395;48.554;8.820;2023-02-15T05:39:10;13.32;;;9.93;;
8716;SDS011;4395;48.554;8.820;2023-02-15T05:41:12;24.25;;;10.75;;
8716;SDS011;4395;48.554;8.820;2023-02-15T05:43:15;16.95;;;11.75;;
8716;SDS011;4395;48.554;8.820;2023-02-15T05:45:18;18.73;;;11.90;;
8716;SDS011;4395;48.554;8.820;2023-02-15T05:47:22;20.05;;;13.88;;
8716;SDS011;4395;48.554;8.820;2023-02-15T05:49:25;20.08;;;14.73;;
8716;SDS011;4395;48.554;8.820;2023-02-15T05:51:28;22.88;;;14.55;;
8716;SDS011;4395;48.554;8.820;2023-02-15T05:53:31;21.42;;;13.32;;
8716;SDS011;4395;48.554;8.820;2023-02-15T05:55:36;19.50;;;13.38;;
8716;SDS011;4395;48.554;8.820;2023-02-15T05:57:39;18.55;;;13.02;;
8716;SDS011;4395;48.554;8.820;2023-02-15T05:59:42;17.75;;;13.25;;
8716;SDS011;4395;48.554;8.820;2023-02-15T06:01:45;16.05;;;12.30;;
8716;SDS011;4395;48.554;8.820;2023-02-15T06:03:49;16.60;;;12.15;;
8716;SDS011;4395;48.554;8.820;2023-02-15T06:05:52;16.90;;;12.52;;
8716;SDS011;4395;48.554;8.820;2023-02-15T06:07:55;17.20;;;12.43;;
8716;SDS011;4395;48.554;8.820;2023-02-15T06:09:58;18.08;;;12.32;;
8716;SDS011;4395;48.554;8.820;2023-02-15T06:12:00;21.20;;;13.13;;
8716;SDS011;4395;48.554;8.820;2023-02-15T06:14:03;18.13;;;12.60;;
8716;SDS011;4395;48.554;8.820;2023-02-15T06:16:06;17.92;;;12.63;;
8716;SDS011;4395;48.554;8.820;2023-02-15T06:18:09;18.65;;;12.90;;
8716;SDS011;4395;48.554;8.820;2023-02-15T06:20:13;16.55;;;11.60;;
8716;SDS011;4395;48.554;8.820;2023-02-15T06:22:16;17.42;;;12.45;;
8716;SDS011;4395;48.554;8.820;2023-02-15T06:24:19;18.35;;;11.82;;
8716;SDS011;4395;48.554;8.820;2023-02-15T06:26:22;63.00;;;32.20;;
8716;SDS011;4395;48.554;8.820;2023-02-15T06:28:24;58.17;;;29.52;;
8716;SDS011;4395;48.554;8.820;2023-02-15T06:30:27;50.78;;;27.77;;
8716;SDS011;4395;48.554;8.820;2023-02-15T06:32:30;50.40;;;25.95;;
8716;SDS011;4395;48.554;8.820;2023-02-15T06:34:33;47.08;;;24.75;;
8716;SDS011;4395;48.554;8.820;2023-02-15T06:36:37;53.00;;;28.48;;
8716;SDS011;4395;48.554;8.820;2023-02-15T06:38:40;41.53;;;22.88;;
8716;SDS011;4395;48.554;8.820;2023-02-15T06:40:42;47.95;;;25.08;;
8716;SDS011;4395;48.554;8.820;2023-02-15T06:42:45;50.60;;;25.83;;
8716;SDS011;4395;48.554;8.820;2023-02-15T06:44:48;52.78;;;26.58;;
8716;SDS011;4395;48.554;8.820;2023-02-15T06:46:51;41.75;;;23.88;;
8716;SDS011;4395;48.554;8.820;2023-02-15T06:48:54;36.70;;;20.85;;
8716;SDS011;4395;48.554;8.820;2023-02-15T06:50:56;33.22;;;19.42;;
8716;SDS011;4395;48.554;8.820;2023-02-15T06:53:01;29.02;;;17.67;;
8716;SDS011;4395;48.554;8.820;2023-02-15T06:55:04;28.98;;;17.52;;
8716;SDS011;4395;48.554;8.820;2023-02-15T06:57:07;27.73;;;18.50;;
8716;SDS011;4395;48.554;8.820;2023-02-15T06:59:11;27.02;;;17.38;;
8716;SDS011;4395;48.554;8.820;2023-02-15T07:01:13;26.80;;;16.20;;
8716;SDS011;4395;48.554;8.820;2023-02-15T07:03:16;25.52;;;16.83;;
8716;SDS011;4395;48.554;8.820;2023-02-15T07:05:19;26.17;;;17.50;;
8716;SDS011;4395;48.554;8.820;2023-02-15T07:07:22;24.17;;;16.85;;
8716;SDS011;4395;48.554;8.820;2023-02-15T07:09:26;28.10;;;17.13;;
8716;SDS011;4395;48.554;8.820;2023-02-15T07:11:29;23.05;;;16.52;;
8716;SDS011;4395;48.554;8.820;2023-02-15T07:13:49;24.02;;;15.70;;
8716;SDS011;4395;48.554;8.820;2023-02-15T07:15:53;24.83;;;16.70;;
8716;SDS011;4395;48.554;8.820;2023-02-15T07:17:56;24.88;;;16.58;;
8716;SDS011;4395;48.554;8.820;2023-02-15T07:19:59;24.73;;;15.95;;
8716;SDS011;4395;48.554;8.820;2023-02-15T07:22:02;26.50;;;15.20;;
8716;SDS011;4395;48.554;8.820;2023-02-15T07:24:06;26.25;;;15.45;;
8716;SDS011;4395;48.554;8.820;2023-02-15T07:26:10;22.05;;;15.27;;
8716;SDS011;4395;48.554;8.820;2023-02-15T07:28:13;24.58;;;15.18;;
8716;SDS011;4395;48.554;8.820;2023-02-15T07:30:17;22.92;;;15.50;;
8716;SDS011;4395;48.554;8.820;2023-02-15T07:32:20;24.55;;;16.88;;
8716;SDS011;4395;48.554;8.820;2023-02-15T07:34:22;30.88;;;18.88;;
8716;SDS011;4395;48.554;8.820;2023-02-15T07:36:25;23.77;;;16.98;;
8716;SDS011;4395;48.554;8.820;2023-02-15T07:38:29;24.10;;;17.58;;
8716;SDS011;4395;48.554;8.820;2023-02-15T07:40:34;23.83;;;15.25;;
8716;SDS011;4395;48.554;8.820;2023-02-15T07:42:38;22.45;;;16.73;;
8716;SDS011;4395;48.554;8.820;2023-02-15T07:44:40;25.45;;;17.40;;
8716;SDS011;4395;48.554;8.820;2023-02-15T07:46:43;24.60;;;17.90;;
8716;SDS011;4395;48.554;8.820;2023-02-15T07:48:46;26.77;;;19.85;;
8716;SDS011;4395;48.554;8.820;2023-02-15T07:50:50;24.05;;;17.90;;
8716;SDS011;4395;48.554;8.820;2023-02-15T07:52:53;25.27;;;17.23;;
8716;SDS011;4395;48.554;8.820;2023-02-15T07:54:56;25.50;;;17.13;;
8716;SDS011;4395;48.554;8.820;2023-02-15T07:57:00;28.85;;;18.33;;
8716;SDS011;4395;48.554;8.820;2023-02-15T07:59:04;23.55;;;18.75;;
8716;SDS011;4395;48.554;8.820;2023-02-15T08:01:06;27.27;;;18.77;;
8716;SDS011;4395;48.554;8.820;2023-02-15T08:03:09;24.20;;;17.05;;
8716;SDS011;4395;48.554;8.820;2023-02-15T08:05:18;22.17;;;17.48;;
8716;SDS011;4395;48.554;8.820;2023-02-15T08:07:20;23.98;;;17.83;;
8716;SDS011;4395;48.554;8.820;2023-02-15T08:09:23;19.90;;;15.68;;
8716;SDS011;4395;48.554;8.820;2023-02-15T08:11:26;20.95;;;15.82;;
8716;SDS011;4395;48.554;8.820;2023-02-15T08:13:33;22.35;;;16.77;;
8716;SDS011;4395;48.554;8.820;2023-02-15T08:15:38;22.65;;;17.05;;
8716;SDS011;4395;48.554;8.820;2023-02-15T08:17:40;24.02;;;16.23;;
8716;SDS011;4395;48.554;8.820;2023-02-15T08:19:43;26.75;;;16.92;;
8716;SDS011;4395;48.554;8.820;2023-02-15T08:21:48;27.23;;;17.52;;
8716;SDS011;4395;48.554;8.820;2023-02-15T08:23:52;23.38;;;14.57;;
8716;SDS011;4395;48.554;8.820;2023-02-15T08:25:55;17.25;;;13.32;;
8716;SDS011;4395;48.554;8.820;2023-02-15T08:28:02;17.38;;;12.57;;
8716;SDS011;4395;48.554;8.820;2023-02-15T08:30:06;21.45;;;13.45;;
8716;SDS011;4395;48.554;8.820;2023-02-15T08:32:11;15.60;;;12.52;;
8716;SDS011;4395;48.554;8.820;2023-02-15T08:34:15;17.55;;;12.80;;
8716;SDS011;4395;48.554;8.820;2023-02-15T08:36:21;21.33;;;13.73;;
8716;SDS011;4395;48.554;8.820;2023-02-15T08:38:25;23.85;;;17.98;;
8716;SDS011;4395;48.554;8.820;2023-02-15T08:40:27;25.52;;;18.38;;
8716;SDS011;4395;48.554;8.820;2023-02-15T08:42:32;21.48;;;16.70;;
8716;SDS011;4395;48.554;8.820;2023-02-15T08:44:34;21.00;;;15.95;;
8716;SDS011;4395;48.554;8.820;2023-02-15T08:46:38;19.50;;;14.90;;
8716;SDS011;4395;48.554;8.820;2023-02-15T08:48:44;19.90;;;13.98;;
8716;SDS011;4395;48.554;8.820;2023-02-15T08:50:47;18.70;;;13.43;;
8716;SDS011;4395;48.554;8.820;2023-02-15T08:52:50;17.63;;;13.13;;
8716;SDS011;4395;48.554;8.820;2023-02-15T08:54:52;15.57;;;13.10;;
8716;SDS011;4395;48.554;8.820;2023-02-15T08:56:56;14.63;;;11.95;;
8716;SDS011;4395;48.554;8.820;2023-02-15T08:58:58;18.65;;;11.90;;
8716;SDS011;4395;48.554;8.820;2023-02-15T09:01:07;14.05;;;11.05;;
8716;SDS011;4395;48.554;8.820;2023-02-15T09:03:11;16.05;;;11.02;;
8716;SDS011;4395;48.554;8.820;2023-02-15T09:05:15;12.63;;;10.52;;
8716;SDS011;4395;48.554;8.820;2023-02-15T09:07:18;15.93;;;10.43;;
8716;SDS011;4395;48.554;8.820;2023-02-15T09:09:21;12.75;;;9.80;;
8716;SDS011;4395;48.554;8.820;2023-02-15T09:11:24;12.30;;;9.73;;
8716;SDS011;4395;48.554;8.820;2023-02-15T09:13:28;12.95;;;9.60;;
8716;SDS011;4395;48.554;8.820;2023-02-15T09:15:31;11.98;;;9.63;;
8716;SDS011;4395;48.554;8.820;2023-02-15T09:17:33;12.18;;;9.18;;
8716;SDS011;4395;48.554;8.820;2023-02-15T09:19:36;11.23;;;9.02;;
8716;SDS011;4395;48.554;8.820;2023-02-15T09:21:40;11.20;;;8.23;;
8716;SDS011;4395;48.554;8.820;2023-02-15T09:23:44;10.65;;;8.82;;
8716;SDS011;4395;48.554;8.820;2023-02-15T09:25:47;11.80;;;8.73;;
8716;SDS011;4395;48.554;8.820;2023-02-15T09:27:50;10.30;;;8.40;;
8716;SDS011;4395;48.554;8.820;2023-02-15T09:29:53;10.18;;;8.32;;
8716;SDS011;4395;48.554;8.820;2023-02-15T09:31:56;9.98;;;8.07;;
8716;SDS011;4395;48.554;8.820;2023-02-15T09:33:59;11.10;;;8.05;;
8716;SDS011;4395;48.554;8.820;2023-02-15T09:36:03;10.15;;;8.30;;
8716;SDS011;4395;48.554;8.820;2023-02-15T09:38:07;11.93;;;7.82;;
8716;SDS011;4395;48.554;8.820;2023-02-15T09:40:13;16.40;;;9.23;;
8716;SDS011;4395;48.554;8.820;2023-02-15T09:42:28;11.45;;;8.88;;
8716;SDS011;4395;48.554;8.820;2023-02-15T09:45:02;11.65;;;7.00;;
8716;SDS011;4395;48.554;8.820;2023-02-15T09:47:31;21.42;;;8.15;;
8716;SDS011;4395;48.554;8.820;2023-02-15T09:49:48;10.20;;;7.72;;
8716;SDS011;4395;48.554;8.820;2023-02-15T09:52:03;16.48;;;8.52;;
8716;SDS011;4395;48.554;8.820;2023-02-15T09:54:25;10.00;;;7.75;;
8716;SDS011;4395;48.554;8.820;2023-02-15T09:56:49;11.00;;;7.63;;
8716;SDS011;4395;48.554;8.820;2023-02-15T09:58:58;11.30;;;7.63;;
8716;SDS011;4395;48.554;8.820;2023-02-15T10:01:09;9.10;;;7.35;;
8716;SDS011;4395;48.554;8.820;2023-02-15T10:03:24;13.02;;;8.23;;
8716;SDS011;4395;48.554;8.820;2023-02-15T10:05:38;11.30;;;7.72;;
8716;SDS011;4395;48.554;8.820;2023-02-15T10:08:00;11.40;;;7.85;;
8716;SDS011;4395;48.554;8.820;2023-02-15T10:10:21;14.98;;;8.13;;
8716;SDS011;4395;48.554;8.820;2023-02-15T10:12:40;12.80;;;8.20;;
8716;SDS011;4395;48.554;8.820;2023-02-15T10:15:04;35.30;;;10.07;;
8716;SDS011;4395;48.554;8.820;2023-02-15T10:17:21;12.73;;;8.90;;
8716;SDS011;4395;48.554;8.820;2023-02-15T10:19:35;15.93;;;9.05;;
8716;SDS011;4395;48.554;8.820;2023-02-15T10:21:47;12.70;;;8.85;;
8716;SDS011;4395;48.554;8.820;2023-02-15T10:24:04;13.60;;;9.05;;
8716;SDS011;4395;48.554;8.820;2023-02-15T10:26:26;12.38;;;9.43;;
8716;SDS011;4395;48.554;8.820;2023-02-15T10:28:42;12.75;;;9.75;;
8716;SDS011;4395;48.554;8.820;2023-02-15T10:30:50;13.18;;;8.68;;
8716;SDS011;4395;48.554;8.820;2023-02-15T10:32:57;15.40;;;10.02;;
8716;SDS011;4395;48.554;8.820;2023-02-15T10:35:03;12.40;;;9.65;;
8716;SDS011;4395;48.554;8.820;2023-02-15T10:37:21;14.02;;;9.52;;
8716;SDS011;4395;48.554;8.820;2023-02-15T10:39:47;17.10;;;10.63;;
8716;SDS011;4395;48.554;8.820;2023-02-15T10:42:05;13.82;;;9.57;;
8716;SDS011;4395;48.554;8.820;2023-02-15T10:44:19;13.00;;;9.43;;
8716;SDS011;4395;48.554;8.820;2023-02-15T10:46:48;12.40;;;9.50;;
8716;SDS011;4395;48.554;8.820;2023-02-15T10:49:11;13.75;;;9.98;;
8716;SDS011;4395;48.554;8.820;2023-02-15T10:51:33;15.93;;;9.68;;
8716;SDS011;4395;48.554;8.820;2023-02-15T10:53:53;13.07;;;10.35;;
8716;SDS011;4395;48.554;8.820;2023-02-15T10:56:11;15.77;;;9.90;;
8716;SDS011;4395;48.554;8.820;2023-02-15T10:58:24;18.20;;;10.15;;
8716;SDS011;4395;48.554;8.820;2023-02-15T11:00:39;15.63;;;9.13;;
8716;SDS011;4395;48.554;8.820;2023-02-15T11:02:50;16.02;;;9.82;;
8716;SDS011;4395;48.554;8.820;2023-02-15T11:05:13;13.90;;;9.60;;
8716;SDS011;4395;48.554;8.820;2023-02-15T11:07:27;14.20;;;10.40;;
8716;SDS011;4395;48.554;8.820;2023-02-15T11:09:36;14.57;;;10.80;;
8716;SDS011;4395;48.554;8.820;2023-02-15T11:11:43;15.52;;;11.00;;
8716;SDS011;4395;48.554;8.820;2023-02-15T11:13:52;12.97;;;10.10;;
8716;SDS011;4395;48.554;8.820;2023-02-15T11:15:59;12.70;;;10.10;;
8716;SDS011;4395;48.554;8.820;2023-02-15T11:18:09;14.80;;;10.10;;
8716;SDS011;4395;48.554;8.820;2023-02-15T11:20:18;11.93;;;9.13;;
8716;SDS011;4395;48.554;8.820;2023-02-15T11:22:26;22.50;;;10.70;;
8716;SDS011;4395;48.554;8.820;2023-02-15T11:24:29;16.30;;;9.57;;
8716;SDS011;4395;48.554;8.820;2023-02-15T11:26:37;22.93;;;10.80;;
8716;SDS011;4395;48.554;8.820;2023-02-15T11:28:45;13.70;;;9.30;;
8716;SDS011;4395;48.554;8.820;2023-02-15T11:30:53;14.67;;;9.57;;
8716;SDS011;4395;48.554;8.820;2023-02-15T11:32:58;15.57;;;10.50;;
8716;SDS011;4395;48.554;8.820;2023-02-15T11:35:10;17.60;;;10.47;;
8716;SDS011;4395;48.554;8.820;2023-02-15T11:37:24;13.97;;;9.20;;
8716;SDS011;4395;48.554;8.820;2023-02-15T11:39:34;12.77;;;8.93;;
8716;SDS011;4395;48.554;8.820;2023-02-15T11:41:39;16.77;;;9.70;;
8716;SDS011;4395;48.554;8.820;2023-02-15T11:43:46;17.17;;;10.43;;
8716;SDS011;4395;48.554;8.820;2023-02-15T11:45:54;16.43;;;10.27;;
8716;SDS011;4395;48.554;8.820;2023-02-15T11:47:57;18.30;;;10.43;;
8716;SDS011;4395;48.554;8.820;2023-02-15T11:50:01;13.60;;;9.97;;
8716;SDS011;4395;48.554;8.820;2023-02-15T11:52:05;13.53;;;9.97;;
8716;SDS011;4395;48.554;8.820;2023-02-15T11:54:10;13.80;;;10.67;;
8716;SDS011;4395;48.554;8.820;2023-02-15T11:56:13;13.20;;;10.00;;
8716;SDS011;4395;48.554;8.820;2023-02-15T11:58:22;18.50;;;9.90;;
8716;SDS011;4395;48.554;8.820;2023-02-15T12:00:32;16.17;;;10.00;;
8716;SDS011;4395;48.554;8.820;2023-02-15T12:02:39;15.07;;;9.70;;
8716;SDS011;4395;48.554;8.820;2023-02-15T12:04:48;13.03;;;9.33;;
8716;SDS011;4395;48.554;8.820;2023-02-15T12:06:55;15.93;;;9.43;;
8716;SDS011;4395;48.554;8.820;2023-02-15T12:09:04;17.27;;;10.13;;
8716;SDS011;4395;48.554;8.820;2023-02-15T12:11:12;12.83;;;9.70;;
8716;SDS011;4395;48.554;8.820;2023-02-15T12:13:19;13.80;;;10.00;;
8716;SDS011;4395;48.554;8.820;2023-02-15T12:15:29;12.67;;;10.00;;
8716;SDS011;4395;48.554;8.820;2023-02-15T12:17:34;14.23;;;9.60;;
8716;SDS011;4395;48.554;8.820;2023-02-15T12:19:44;15.07;;;9.50;;
8716;SDS011;4395;48.554;8.820;2023-02-15T12:21:51;14.03;;;9.70;;
8716;SDS011;4395;48.554;8.820;2023-02-15T12:23:56;13.10;;;9.73;;
8716;SDS011;4395;48.554;8.820;2023-02-15T12:26:00;12.73;;;9.60;;
8716;SDS011;4395;48.554;8.820;2023-02-15T12:28:05;11.67;;;9.27;;
8716;SDS011;4395;48.554;8.820;2023-02-15T12:30:25;16.60;;;9.53;;
8716;SDS011;4395;48.554;8.820;2023-02-15T12:32:33;15.30;;;10.80;;
8716;SDS011;4395;48.554;8.820;2023-02-15T12:34:39;12.67;;;9.70;;
8716;SDS011;4395;48.554;8.820;2023-02-15T12:36:45;13.63;;;10.40;;
8716;SDS011;4395;48.554;8.820;2023-02-15T12:39:05;12.67;;;9.90;;
8716;SDS011;4395;48.554;8.820;2023-02-15T12:41:21;15.90;;;10.67;;
8716;SDS011;4395;48.554;8.820;2023-02-15T12:43:26;12.80;;;9.20;;
8716;SDS011;4395;48.554;8.820;2023-02-15T12:45:32;19.73;;;9.90;;
8716;SDS011;4395;48.554;8.820;2023-02-15T12:47:36;13.03;;;10.30;;